Eurocargo Venezia — IBKS — position and weather

sailwx.info

Track history (hours):
 
Tides and Currents Weather Stations Pressure Air Temp Water Temp Dewpoint Dewpoint Depression Visibility Wind Speed Wind Dir Waves Ship Positions

Eurocargo Venezia

Last reported at 2016-Apr-29 23:31 UTC. Time now 2016-Apr-30 07:06 UTC.
Position N 38°06' E 011°51'.

Length 200 m; draft 7 m.

Type: Cargo ship. MMSI: 247297200.

Date/timePositionNaut miles runAvg speedWind from/ knotsBaromVisibWave heightAir tempDewpointWater temp
2016-Apr-29 23:31N 38°06' E 011°51'2020.6
2016-Apr-29 22:33N 37°48' E 012°03'6120.2
2016-Apr-29 19:33N 37°07' E 012°59'1919.6
2016-Apr-29 18:34N 36°54' E 013°17'1919.4
2016-Apr-29 17:34N 36°41' E 013°34'2020.2
2016-Apr-29 16:33N 36°27' E 013°53'2120.6
2016-Apr-29 15:34N 36°13' E 014°12'2020.1
2016-Apr-29 14:33N 35°59' E 014°30'6 5.5
2016-Apr-29 13:28N 35°53' E 014°31'0 0.0
2016-Apr-29 12:31N 35°53' E 014°31'0 0.0
2016-Apr-29 11:28N 35°53' E 014°31'0 0.0
2016-Apr-29 10:31N 35°53' E 014°31'0 0.0
2016-Apr-29 09:31N 35°53' E 014°31'0 0.0
2016-Apr-29 08:25N 35°53' E 014°31'0 0.0
2016-Apr-29 07:13N 35°53' E 014°31'2 2.9
2016-Apr-29 06:33N 35°54' E 014°32'1817.7
2016-Apr-29 05:33N 36°09' E 014°45'2121.1
2016-Apr-29 04:34N 36°26' E 015°00'2121.3
2016-Apr-29 03:33N 36°44' E 015°15'52 5.5
2016-Apr-28 18:03N 37°36' E 015°17'1020.1
2016-Apr-28 17:33N 37°45' E 015°22'2019.8
2016-Apr-28 16:33N 38°03' E 015°32'1616.2
2016-Apr-28 15:33N 38°18' E 015°39'1918.9
2016-Apr-28 14:33N 38°36' E 015°30'2020.2
2016-Apr-28 13:33N 38°54' E 015°18'8220.4
2016-Apr-28 09:33N 40°01' E 014°17'2220.6
2016-Apr-28 08:31N 40°18' E 014°01'2020.9
2016-Apr-28 07:33N 40°35' E 013°47'2520.5
2016-Apr-28 06:20N 40°55' E 013°26'18320.2
2016-Apr-27 21:18N 42°57' E 010°24'1520.4
2016-Apr-27 20:33N 43°09' E 010°12'1918.7
2016-Apr-27 19:34N 43°28' E 010°11'9 8.6
2016-Apr-27 18:33N 43°34' E 010°19'0 0.3
2016-Apr-27 17:33N 43°35' E 010°19'0 0.0
2016-Apr-27 16:34N 43°35' E 010°19'0 0.0
2016-Apr-27 15:34N 43°35' E 010°19'0 0.0
2016-Apr-27 14:33N 43°35' E 010°19'0 0.0
2016-Apr-27 13:34N 43°35' E 010°19'0 0.0
2016-Apr-27 12:33N 43°35' E 010°19'0 0.0
2016-Apr-27 11:33N 43°35' E 010°19'0 0.0
2016-Apr-27 10:33N 43°35' E 010°19'0 0.0
2016-Apr-27 09:33N 43°35' E 010°19'0 0.0
2016-Apr-27 08:33N 43°35' E 010°19'1 0.9
2016-Apr-27 07:33N 43°34' E 010°18'9 9.0
2016-Apr-27 06:33N 43°28' E 010°10'3 3.1
2016-Apr-27 05:33N 43°25' E 010°08'0 0.4
2016-Apr-27 04:33N 43°25' E 010°08'1 0.8
2016-Apr-27 03:33N 43°24' E 010°07'2 2.1
2016-Apr-27 02:33N 43°25' E 010°10'1 1.4
2016-Apr-27 01:33N 43°24' E 010°08'2 2.2
2016-Apr-27 00:33N 43°26' E 010°06'3 2.9
2016-Apr-26 23:33N 43°29' E 010°05'2 2.3
2016-Apr-26 22:33N 43°30' E 010°03'1111.0
2016-Apr-26 21:33N 43°36' E 009°50'1918.9
2016-Apr-26 20:33N 43°51' E 009°33'1818.3
2016-Apr-26 19:33N 44°05' E 009°16'1918.5
2016-Apr-26 18:33N 44°19' E 008°60'7 7.3
2016-Apr-26 17:33N 44°24' E 008°53'0 0.0
2016-Apr-26 16:33N 44°24' E 008°53'0 0.0
2016-Apr-26 15:33N 44°24' E 008°53'0 0.0
2016-Apr-26 14:34N 44°24' E 008°53'0 0.0
2016-Apr-26 13:33N 44°24' E 008°53'0 0.0
2016-Apr-26 12:33N 44°24' E 008°53'0 0.0
2016-Apr-26 11:33N 44°24' E 008°53'0 0.0
2016-Apr-26 10:33N 44°24' E 008°53'0 0.0
2016-Apr-26 09:33N 44°24' E 008°53'0 0.0
2016-Apr-26 08:33N 44°24' E 008°53'0 0.0
2016-Apr-26 07:33N 44°24' E 008°53'0 0.0
2016-Apr-26 06:33N 44°24' E 008°53'0 0.0
2016-Apr-26 05:34N 44°24' E 008°53'0 0.0
2016-Apr-26 04:33N 44°24' E 008°53'0 0.0
2016-Apr-26 03:33N 44°24' E 008°53'0 0.0
2016-Apr-26 02:33N 44°24' E 008°53'0 0.0
2016-Apr-26 01:33N 44°24' E 008°53'0 0.0
2016-Apr-26 00:33N 44°24' E 008°53'0 0.0
2016-Apr-25 23:33N 44°24' E 008°53'0 0.0
2016-Apr-25 22:33N 44°24' E 008°53'0 0.0
2016-Apr-25 21:33N 44°24' E 008°53'0 0.0
2016-Apr-25 20:33N 44°24' E 008°53'0 0.0
2016-Apr-25 19:33N 44°24' E 008°53'0 0.0
2016-Apr-25 18:33N 44°24' E 008°53'0 0.0
2016-Apr-25 17:34N 44°24' E 008°53'0 0.0
2016-Apr-25 16:33N 44°24' E 008°53'0 0.0
2016-Apr-25 15:33N 44°24' E 008°53'0 0.0
2016-Apr-25 14:33N 44°24' E 008°53'0 0.0
2016-Apr-25 13:33N 44°24' E 008°53'0 0.0
2016-Apr-25 12:33N 44°24' E 008°53'0 0.0
2016-Apr-25 11:33N 44°24' E 008°53'0 0.0
2016-Apr-25 10:33N 44°24' E 008°53'2 2.0
2016-Apr-25 09:33N 44°24' E 008°56'1414.5
2016-Apr-25 08:33N 44°12' E 009°08'1716.8
2016-Apr-25 07:33N 43°59' E 009°24'1716.8
2016-Apr-25 06:33N 43°46' E 009°39'1716.7
2016-Apr-25 05:33N 43°34' E 009°54'1716.5
2016-Apr-25 04:33N 43°21' E 010°08'1616.3
2016-Apr-25 03:33N 43°06' E 010°18'33315.1
2016-Apr-24 05:30N 38°59' E 015°14'1515.4
2016-Apr-24 04:31N 38°46' E 015°24'1515.5
2016-Apr-24 03:33N 38°33' E 015°33'1616.2
2016-Apr-24 02:33N 38°18' E 015°41'1414.5
2016-Apr-24 01:34N 38°05' E 015°34'1616.2
2016-Apr-24 00:33N 37°50' E 015°26'77 7.0
2016-Apr-23 13:29N 36°34' E 015°08'1920.1
2016-Apr-23 12:31N 36°18' E 014°54'2020.4
2016-Apr-23 11:33N 36°02' E 014°39'1210.2
2016-Apr-23 10:24N 35°53' E 014°31'0 0.0
2016-Apr-23 09:27N 35°53' E 014°31'0 0.0
2016-Apr-23 08:33N 35°53' E 014°31'0 0.0
2016-Apr-23 07:12N 35°53' E 014°31'0 0.0
2016-Apr-23 06:12N 35°53' E 014°31'0 0.0
2016-Apr-23 04:17N 35°53' E 014°31'5 6.3
2016-Apr-23 03:34N 35°56' E 014°34'1918.8
2016-Apr-23 02:33N 36°12' E 014°48'2019.0
2016-Apr-23 01:31N 36°28' E 015°02'72 5.1
2016-Apr-22 11:30N 37°38' E 015°18'1617.2
2016-Apr-22 10:33N 37°53' E 015°27'1817.8
2016-Apr-22 09:33N 38°10' E 015°35'1615.8
2016-Apr-22 08:33N 38°26' E 015°36'2018.9
2016-Apr-22 07:31N 38°43' E 015°26'11519.1
2016-Apr-22 01:30N 40°18' E 014°02'1819.5
2016-Apr-22 00:33N 40°33' E 013°48'1919.4
2016-Apr-21 23:33N 40°49' E 013°33'1919.3
2016-Apr-21 22:33N 41°01' E 013°13'2219.6
2016-Apr-21 21:27N 41°13' E 012°49'1919.7
2016-Apr-21 20:30N 41°24' E 012°29'8519.1
2016-Apr-21 16:03N 42°22' E 011°05'1019.4
2016-Apr-21 15:34N 42°27' E 010°54'2019.6
2016-Apr-21 14:34N 42°43' E 010°39'1918.9
2016-Apr-21 13:34N 42°58' E 010°24'1918.5
2016-Apr-21 12:34N 43°16' E 010°16'1615.7
2016-Apr-21 11:33N 43°32' E 010°14'5 4.5
2016-Apr-21 10:33N 43°35' E 010°19'0 0.0
2016-Apr-21 09:30N 43°35' E 010°19'0 0.0
2016-Apr-21 08:33N 43°35' E 010°19'0 0.0
2016-Apr-21 07:33N 43°35' E 010°19'0 0.0
2016-Apr-21 06:33N 43°35' E 010°19'0 0.0
2016-Apr-21 05:33N 43°35' E 010°19'0 0.0
2016-Apr-21 04:33N 43°35' E 010°19'2 2.2
2016-Apr-21 03:33N 43°33' E 010°17'10 9.6
2016-Apr-21 02:33N 43°30' E 010°05'1413.7
2016-Apr-21 01:33N 43°38' E 009°49'1414.4
2016-Apr-21 00:33N 43°49' E 009°36'1514.6
2016-Apr-20 23:33N 43°59' E 009°22'1414.0
2016-Apr-20 22:33N 44°10' E 009°10'1414.3
2016-Apr-20 21:33N 44°21' E 008°57'4 4.0
2016-Apr-20 20:31N 44°24' E 008°53'0 0.0
2016-Apr-20 19:31N 44°24' E 008°53'0 0.0
2016-Apr-20 18:31N 44°24' E 008°53'0 0.0
2016-Apr-20 17:31N 44°24' E 008°53'0 0.0
2016-Apr-20 16:28N 44°24' E 008°53'0 0.0
2016-Apr-20 15:31N 44°24' E 008°53'0 0.0
2016-Apr-20 14:31N 44°24' E 008°53'0 0.0
2016-Apr-20 13:31N 44°24' E 008°53'0 0.0
2016-Apr-20 12:31N 44°24' E 008°53'6 6.5
2016-Apr-20 11:33N 44°20' E 008°60'1818.2
2016-Apr-20 10:33N 44°06' E 009°16'  
Track history (hours):
 
Tides and Currents Weather Stations Pressure Air Temp Water Temp Dewpoint Dewpoint Depression Visibility Wind Speed Wind Dir Waves Ship Positions

Eurocargo Venezia

Last reported at 2016-Apr-29 23:31 UTC. Time now 2016-Apr-30 07:06 UTC.
Position N 38°06' E 011°51'.

Length 200 m; draft 7 m.

Type: Cargo ship. MMSI: 247297200.

Date/timePositionNaut miles runAvg speedWind from/ knotsBaromVisibWave heightAir tempDewpointWater temp
2016-Apr-29 23:31N 38°06' E 011°51'2020.6
2016-Apr-29 22:33N 37°48' E 012°03'6120.2
2016-Apr-29 19:33N 37°07' E 012°59'1919.6
2016-Apr-29 18:34N 36°54' E 013°17'1919.4
2016-Apr-29 17:34N 36°41' E 013°34'2020.2
2016-Apr-29 16:33N 36°27' E 013°53'2120.6
2016-Apr-29 15:34N 36°13' E 014°12'2020.1
2016-Apr-29 14:33N 35°59' E 014°30'6 5.5
2016-Apr-29 13:28N 35°53' E 014°31'0 0.0
2016-Apr-29 12:31N 35°53' E 014°31'0 0.0
2016-Apr-29 11:28N 35°53' E 014°31'0 0.0
2016-Apr-29 10:31N 35°53' E 014°31'0 0.0
2016-Apr-29 09:31N 35°53' E 014°31'0 0.0
2016-Apr-29 08:25N 35°53' E 014°31'0 0.0
2016-Apr-29 07:13N 35°53' E 014°31'2 2.9
2016-Apr-29 06:33N 35°54' E 014°32'1817.7
2016-Apr-29 05:33N 36°09' E 014°45'2121.1
2016-Apr-29 04:34N 36°26' E 015°00'2121.3
2016-Apr-29 03:33N 36°44' E 015°15'52 5.5
2016-Apr-28 18:03N 37°36' E 015°17'1020.1
2016-Apr-28 17:33N 37°45' E 015°22'2019.8
2016-Apr-28 16:33N 38°03' E 015°32'1616.2
2016-Apr-28 15:33N 38°18' E 015°39'1918.9
2016-Apr-28 14:33N 38°36' E 015°30'2020.2
2016-Apr-28 13:33N 38°54' E 015°18'8220.4
2016-Apr-28 09:33N 40°01' E 014°17'2220.6
2016-Apr-28 08:31N 40°18' E 014°01'2020.9
2016-Apr-28 07:33N 40°35' E 013°47'2520.5
2016-Apr-28 06:20N 40°55' E 013°26'18320.2
2016-Apr-27 21:18N 42°57' E 010°24'1520.4
2016-Apr-27 20:33N 43°09' E 010°12'1918.7
2016-Apr-27 19:34N 43°28' E 010°11'9 8.6
2016-Apr-27 18:33N 43°34' E 010°19'0 0.3
2016-Apr-27 17:33N 43°35' E 010°19'0 0.0
2016-Apr-27 16:34N 43°35' E 010°19'0 0.0
2016-Apr-27 15:34N 43°35' E 010°19'0 0.0
2016-Apr-27 14:33N 43°35' E 010°19'0 0.0
2016-Apr-27 13:34N 43°35' E 010°19'0 0.0
2016-Apr-27 12:33N 43°35' E 010°19'0 0.0
2016-Apr-27 11:33N 43°35' E 010°19'0 0.0
2016-Apr-27 10:33N 43°35' E 010°19'0 0.0
2016-Apr-27 09:33N 43°35' E 010°19'0 0.0
2016-Apr-27 08:33N 43°35' E 010°19'1 0.9
2016-Apr-27 07:33N 43°34' E 010°18'9 9.0
2016-Apr-27 06:33N 43°28' E 010°10'3 3.1
2016-Apr-27 05:33N 43°25' E 010°08'0 0.4
2016-Apr-27 04:33N 43°25' E 010°08'1 0.8
2016-Apr-27 03:33N 43°24' E 010°07'2 2.1
2016-Apr-27 02:33N 43°25' E 010°10'1 1.4
2016-Apr-27 01:33N 43°24' E 010°08'2 2.2
2016-Apr-27 00:33N 43°26' E 010°06'3 2.9
2016-Apr-26 23:33N 43°29' E 010°05'2 2.3
2016-Apr-26 22:33N 43°30' E 010°03'1111.0
2016-Apr-26 21:33N 43°36' E 009°50'1918.9
2016-Apr-26 20:33N 43°51' E 009°33'1818.3
2016-Apr-26 19:33N 44°05' E 009°16'1918.5
2016-Apr-26 18:33N 44°19' E 008°60'7 7.3
2016-Apr-26 17:33N 44°24' E 008°53'0 0.0
2016-Apr-26 16:33N 44°24' E 008°53'0 0.0
2016-Apr-26 15:33N 44°24' E 008°53'0 0.0
2016-Apr-26 14:34N 44°24' E 008°53'0 0.0
2016-Apr-26 13:33N 44°24' E 008°53'0 0.0
2016-Apr-26 12:33N 44°24' E 008°53'0 0.0
2016-Apr-26 11:33N 44°24' E 008°53'0 0.0
2016-Apr-26 10:33N 44°24' E 008°53'0 0.0
2016-Apr-26 09:33N 44°24' E 008°53'0 0.0
2016-Apr-26 08:33N 44°24' E 008°53'0 0.0
2016-Apr-26 07:33N 44°24' E 008°53'0 0.0
2016-Apr-26 06:33N 44°24' E 008°53'0 0.0
2016-Apr-26 05:34N 44°24' E 008°53'0 0.0
2016-Apr-26 04:33N 44°24' E 008°53'0 0.0
2016-Apr-26 03:33N 44°24' E 008°53'0 0.0
2016-Apr-26 02:33N 44°24' E 008°53'0 0.0
2016-Apr-26 01:33N 44°24' E 008°53'0 0.0
2016-Apr-26 00:33N 44°24' E 008°53'0 0.0
2016-Apr-25 23:33N 44°24' E 008°53'0 0.0
2016-Apr-25 22:33N 44°24' E 008°53'0 0.0
2016-Apr-25 21:33N 44°24' E 008°53'0 0.0
2016-Apr-25 20:33N 44°24' E 008°53'0 0.0
2016-Apr-25 19:33N 44°24' E 008°53'0 0.0
2016-Apr-25 18:33N 44°24' E 008°53'0 0.0
2016-Apr-25 17:34N 44°24' E 008°53'0 0.0
2016-Apr-25 16:33N 44°24' E 008°53'0 0.0
2016-Apr-25 15:33N 44°24' E 008°53'0 0.0
2016-Apr-25 14:33N 44°24' E 008°53'0 0.0
2016-Apr-25 13:33N 44°24' E 008°53'0 0.0
2016-Apr-25 12:33N 44°24' E 008°53'0 0.0
2016-Apr-25 11:33N 44°24' E 008°53'0 0.0
2016-Apr-25 10:33N 44°24' E 008°53'2 2.0
2016-Apr-25 09:33N 44°24' E 008°56'1414.5
2016-Apr-25 08:33N 44°12' E 009°08'1716.8
2016-Apr-25 07:33N 43°59' E 009°24'1716.8
2016-Apr-25 06:33N 43°46' E 009°39'1716.7
2016-Apr-25 05:33N 43°34' E 009°54'1716.5
2016-Apr-25 04:33N 43°21' E 010°08'1616.3
2016-Apr-25 03:33N 43°06' E 010°18'33315.1
2016-Apr-24 05:30N 38°59' E 015°14'1515.4
2016-Apr-24 04:31N 38°46' E 015°24'1515.5
2016-Apr-24 03:33N 38°33' E 015°33'1616.2
2016-Apr-24 02:33N 38°18' E 015°41'1414.5
2016-Apr-24 01:34N 38°05' E 015°34'1616.2
2016-Apr-24 00:33N 37°50' E 015°26'77 7.0
2016-Apr-23 13:29N 36°34' E 015°08'1920.1
2016-Apr-23 12:31N 36°18' E 014°54'2020.4
2016-Apr-23 11:33N 36°02' E 014°39'1210.2
2016-Apr-23 10:24N 35°53' E 014°31'0 0.0
2016-Apr-23 09:27N 35°53' E 014°31'0 0.0
2016-Apr-23 08:33N 35°53' E 014°31'0 0.0
2016-Apr-23 07:12N 35°53' E 014°31'0 0.0
2016-Apr-23 06:12N 35°53' E 014°31'0 0.0
2016-Apr-23 04:17N 35°53' E 014°31'5 6.3
2016-Apr-23 03:34N 35°56' E 014°34'1918.8
2016-Apr-23 02:33N 36°12' E 014°48'2019.0
2016-Apr-23 01:31N 36°28' E 015°02'72 5.1
2016-Apr-22 11:30N 37°38' E 015°18'1617.2
2016-Apr-22 10:33N 37°53' E 015°27'1817.8
2016-Apr-22 09:33N 38°10' E 015°35'1615.8
2016-Apr-22 08:33N 38°26' E 015°36'2018.9
2016-Apr-22 07:31N 38°43' E 015°26'11519.1
2016-Apr-22 01:30N 40°18' E 014°02'1819.5
2016-Apr-22 00:33N 40°33' E 013°48'1919.4
2016-Apr-21 23:33N 40°49' E 013°33'1919.3
2016-Apr-21 22:33N 41°01' E 013°13'2219.6
2016-Apr-21 21:27N 41°13' E 012°49'1919.7
2016-Apr-21 20:30N 41°24' E 012°29'8519.1
2016-Apr-21 16:03N 42°22' E 011°05'1019.4
2016-Apr-21 15:34N 42°27' E 010°54'2019.6
2016-Apr-21 14:34N 42°43' E 010°39'1918.9
2016-Apr-21 13:34N 42°58' E 010°24'1918.5
2016-Apr-21 12:34N 43°16' E 010°16'1615.7
2016-Apr-21 11:33N 43°32' E 010°14'5 4.5
2016-Apr-21 10:33N 43°35' E 010°19'0 0.0
2016-Apr-21 09:30N 43°35' E 010°19'0 0.0
2016-Apr-21 08:33N 43°35' E 010°19'0 0.0
2016-Apr-21 07:33N 43°35' E 010°19'0 0.0
2016-Apr-21 06:33N 43°35' E 010°19'0 0.0
2016-Apr-21 05:33N 43°35' E 010°19'0 0.0
2016-Apr-21 04:33N 43°35' E 010°19'2 2.2
2016-Apr-21 03:33N 43°33' E 010°17'10 9.6
2016-Apr-21 02:33N 43°30' E 010°05'1413.7
2016-Apr-21 01:33N 43°38' E 009°49'1414.4
2016-Apr-21 00:33N 43°49' E 009°36'1514.6
2016-Apr-20 23:33N 43°59' E 009°22'1414.0
2016-Apr-20 22:33N 44°10' E 009°10'1414.3
2016-Apr-20 21:33N 44°21' E 008°57'4 4.0
2016-Apr-20 20:31N 44°24' E 008°53'0 0.0
2016-Apr-20 19:31N 44°24' E 008°53'0 0.0
2016-Apr-20 18:31N 44°24' E 008°53'0 0.0
2016-Apr-20 17:31N 44°24' E 008°53'0 0.0
2016-Apr-20 16:28N 44°24' E 008°53'0 0.0
2016-Apr-20 15:31N 44°24' E 008°53'0 0.0
2016-Apr-20 14:31N 44°24' E 008°53'0 0.0
2016-Apr-20 13:31N 44°24' E 008°53'0 0.0
2016-Apr-20 12:31N 44°24' E 008°53'6 6.5
2016-Apr-20 11:33N 44°20' E 008°60'1818.2
2016-Apr-20 10:33N 44°06' E 009°16'  

Dump ship's entire track history